createdAt,value
2023-04-19T00:00:47.761Z,5.32
2023-04-19T00:03:34.323Z,6.09
2023-04-19T00:06:21.117Z,8.68
2023-04-19T00:09:07.265Z,9.43
2023-04-19T00:11:53.712Z,8.25
2023-04-19T00:14:40.310Z,7.19
2023-04-19T00:17:27.635Z,6.46
2023-04-19T00:20:14.096Z,5.89
2023-04-19T00:23:00.631Z,5.47
2023-04-19T00:25:46.962Z,5.43
2023-04-19T00:28:34.110Z,7.44
2023-04-19T00:31:20.500Z,9.05
2023-04-19T00:34:07.192Z,8.28
2023-04-19T00:36:53.635Z,7.10
2023-04-19T00:39:40.129Z,6.21
2023-04-19T00:42:26.759Z,5.58
2023-04-19T00:45:13.359Z,5.11
2023-04-19T00:48:01.411Z,5.36
2023-04-19T00:50:48.452Z,7.68
2023-04-19T00:53:35.158Z,8.90
2023-04-19T00:56:22.808Z,7.74
2023-04-19T00:59:14.648Z,6.49
2023-04-19T01:02:01.677Z,5.62
2023-04-19T01:04:49.935Z,5.69
2023-04-19T01:07:36.342Z,7.83
2023-04-19T01:10:23.148Z,8.59
2023-04-19T01:13:10.314Z,7.28
2023-04-19T01:15:58.118Z,6.10
2023-04-19T01:18:45.018Z,5.35
2023-04-19T01:21:32.561Z,4.78
2023-04-19T01:24:19.328Z,5.39
2023-04-19T01:27:08.475Z,7.61
2023-04-19T01:29:55.319Z,8.64
2023-04-19T01:32:46.397Z,7.41
2023-04-19T01:35:32.922Z,6.14
2023-04-19T01:38:20.499Z,5.27
2023-04-19T01:41:07.925Z,4.68
2023-04-19T01:43:54.315Z,4.92
2023-04-19T01:46:43.170Z,7.20
2023-04-19T01:49:29.820Z,8.46
2023-04-19T01:52:16.108Z,7.26
2023-04-19T01:55:02.840Z,6.04
2023-04-19T01:57:50.227Z,5.24
2023-04-19T02:00:37.381Z,5.32
2023-04-19T02:03:24.404Z,7.50
2023-04-19T02:06:12.728Z,9.02
2023-04-19T02:08:59.179Z,8.13
2023-04-19T02:11:45.638Z,6.77
2023-04-19T02:14:32.304Z,5.83
2023-04-19T02:17:18.976Z,5.61
2023-04-19T02:20:08.446Z,7.49
2023-04-19T02:22:56.841Z,9.21
2023-04-19T02:25:43.569Z,8.96
2023-04-19T02:28:31.670Z,7.50
2023-04-19T02:31:18.216Z,6.32
2023-04-19T02:34:05.179Z,6.21
2023-04-19T02:36:53.230Z,8.32
2023-04-19T02:39:42.605Z,9.13
2023-04-19T02:42:29.104Z,7.92
2023-04-19T02:45:15.988Z,6.78
2023-04-19T02:48:02.913Z,5.99
2023-04-19T02:50:49.612Z,5.49
2023-04-19T02:53:36.423Z,5.73
2023-04-19T02:56:22.936Z,7.81
2023-04-19T02:59:09.404Z,9.44
2023-04-19T03:01:55.820Z,9.87
2023-04-19T03:04:43.648Z,8.55
2023-04-19T03:07:30.506Z,7.36
2023-04-19T03:10:17.376Z,6.50
2023-04-19T03:13:04.275Z,5.86
2023-04-19T03:15:50.737Z,6.54
2023-04-19T03:18:39.857Z,8.93
2023-04-19T03:21:27.497Z,9.67
2023-04-19T03:24:15.892Z,8.40
2023-04-19T03:27:06.792Z,7.36
2023-04-19T03:29:53.428Z,6.66
2023-04-19T03:32:40.574Z,6.15
2023-04-19T03:35:29.365Z,5.84
2023-04-19T03:38:23.667Z,7.01
2023-04-19T03:41:26.200Z,9.21
2023-04-19T03:44:33.264Z,10.62
2023-04-19T03:47:21.485Z,10.33
2023-04-19T03:50:09.671Z,9.07
2023-04-19T03:52:55.892Z,7.87
2023-04-19T03:55:42.214Z,7.07
2023-04-19T03:58:29.304Z,6.53
2023-04-19T04:01:22.681Z,6.85
2023-04-19T04:04:10.065Z,8.96
2023-04-19T04:06:57.101Z,10.58
2023-04-19T04:09:45.124Z,11.63
2023-04-19T04:12:31.736Z,11.75
2023-04-19T04:15:19.225Z,10.49
2023-04-19T04:18:09.235Z,9.40
2023-04-19T04:20:55.693Z,8.67
2023-04-19T04:23:43.155Z,8.60
2023-04-19T04:26:35.265Z,10.55
2023-04-19T04:29:49.549Z,11.35
2023-04-19T04:32:36.014Z,10.11
2023-04-19T04:35:23.028Z,8.93
2023-04-19T04:38:23.660Z,8.70
2023-04-19T04:41:12.228Z,10.59
2023-04-19T04:44:12.025Z,11.40
2023-04-19T04:47:00.019Z,10.12
2023-04-19T04:49:47.122Z,8.94
2023-04-19T04:52:33.821Z,8.63
2023-04-19T04:55:31.778Z,10.50
2023-04-19T04:58:20.435Z,11.70
2023-04-19T05:01:25.362Z,10.76
2023-04-19T05:04:12.565Z,9.38
2023-04-19T05:06:58.996Z,8.48
2023-04-19T05:09:46.822Z,8.51
2023-04-19T05:12:34.377Z,10.32
2023-04-19T05:15:21.702Z,11.70
2023-04-19T05:18:10.680Z,12.15
2023-04-19T05:20:58.171Z,10.98
2023-04-19T05:23:47.415Z,9.85
2023-04-19T05:26:34.570Z,9.00
2023-04-19T05:29:21.559Z,8.99
2023-04-19T05:32:11.015Z,10.84
2023-04-19T05:35:05.059Z,11.98
2023-04-19T05:37:52.722Z,10.98
2023-04-19T05:40:40.133Z,9.77
2023-04-19T05:43:27.012Z,8.91
2023-04-19T05:46:14.419Z,9.14
2023-04-19T05:49:01.049Z,11.05
2023-04-19T05:52:06.695Z,11.10
2023-04-19T05:55:03.666Z,9.78
2023-04-19T05:57:52.016Z,8.73
2023-04-19T06:00:38.583Z,8.56
2023-04-19T06:03:29.966Z,10.40
2023-04-19T06:06:21.840Z,10.87
2023-04-19T06:09:08.134Z,9.61
2023-04-19T06:11:58.008Z,8.48
2023-04-19T06:14:44.930Z,7.73
2023-04-19T06:17:32.233Z,8.02
2023-04-19T06:20:18.592Z,10.19
2023-04-19T06:23:06.547Z,11.20
2023-04-19T06:25:53.151Z,10.23
2023-04-19T06:28:39.938Z,9.31
2023-04-19T06:31:26.818Z,8.73
2023-04-19T06:34:13.476Z,8.26
2023-04-19T06:37:00.481Z,8.91
2023-04-19T06:39:46.706Z,10.83
2023-04-19T06:42:32.941Z,11.24
2023-04-19T06:45:20.096Z,10.06
2023-04-19T06:48:06.548Z,9.05
2023-04-19T06:50:53.966Z,8.29
2023-04-19T06:53:40.765Z,8.46
2023-04-19T06:56:47.688Z,10.35
2023-04-19T06:59:35.373Z,11.76
2023-04-19T07:02:22.165Z,11.01
2023-04-19T07:05:09.285Z,9.65
2023-04-19T07:07:55.514Z,8.85
2023-04-19T07:10:43.843Z,10.11
2023-04-19T07:13:30.175Z,11.67
2023-04-19T07:16:16.643Z,11.54
2023-04-19T07:19:03.431Z,10.16
2023-04-19T07:21:52.166Z,9.12
2023-04-19T07:24:40.323Z,9.73
2023-04-19T07:27:27.295Z,11.56
2023-04-19T07:30:13.934Z,12.39
2023-04-19T07:33:00.298Z,11.42
2023-04-19T07:35:47.110Z,10.16
2023-04-19T07:38:33.631Z,9.26
2023-04-19T07:41:20.027Z,9.29
2023-04-19T07:44:06.750Z,11.12
2023-04-19T07:46:54.063Z,12.49
2023-04-19T07:49:40.766Z,12.09
2023-04-19T07:52:27.264Z,10.84
2023-04-19T07:55:13.836Z,9.86
2023-04-19T07:58:01.769Z,9.93
2023-04-19T08:00:48.587Z,11.65
2023-04-19T08:03:36.413Z,12.75
2023-04-19T08:06:23.036Z,11.80
2023-04-19T08:09:09.849Z,10.48
2023-04-19T08:11:57.801Z,10.13
2023-04-19T08:14:59.411Z,11.82
2023-04-19T08:17:50.742Z,12.56
2023-04-19T08:20:37.498Z,11.40
2023-04-19T08:23:29.732Z,10.31
2023-04-19T08:26:22.785Z,10.32
2023-04-19T08:29:09.701Z,12.24
2023-04-19T08:31:56.292Z,13.08
2023-04-19T08:34:43.094Z,11.95
2023-04-19T08:37:29.641Z,10.84
2023-04-19T08:40:17.232Z,10.11
2023-04-19T08:43:07.434Z,10.86
2023-04-19T08:45:55.909Z,12.66
2023-04-19T08:48:45.091Z,13.25
2023-04-19T08:51:35.673Z,12.10
2023-04-19T08:54:22.394Z,11.04
2023-04-19T08:57:09.552Z,10.29
2023-04-19T08:59:57.897Z,9.69
2023-04-19T09:02:51.670Z,9.92
2023-04-19T09:05:38.933Z,11.95
2023-04-19T09:08:28.286Z,13.34
2023-04-19T09:11:14.898Z,13.53
2023-04-19T09:14:09.054Z,12.36
2023-04-19T09:17:14.875Z,11.42
2023-04-19T09:20:02.441Z,10.83
2023-04-19T09:23:04.917Z,10.43
2023-04-19T09:29:04.425Z,13.07
2023-04-19T09:31:58.916Z,13.92
2023-04-19T09:34:59.611Z,12.86
2023-04-19T09:38:06.994Z,11.90
2023-04-19T09:41:06.943Z,11.13
2023-04-19T09:44:13.020Z,10.59
2023-04-19T09:47:00.007Z,10.28
2023-04-19T09:49:49.422Z,11.56
2023-04-19T09:52:37.270Z,13.44
2023-04-19T09:55:27.538Z,13.93
2023-04-19T09:58:20.121Z,12.83
2023-04-19T10:01:15.496Z,11.84
2023-04-19T10:04:14.834Z,11.10
2023-04-19T10:07:29.422Z,10.61
2023-04-19T10:10:20.995Z,11.09
2023-04-19T10:13:19.604Z,13.07
2023-04-19T10:16:26.588Z,13.43
2023-04-19T10:19:17.724Z,12.39
2023-04-19T10:22:07.824Z,11.53
2023-04-19T10:25:15.660Z,10.97
2023-04-19T10:28:01.955Z,11.30
2023-04-19T10:31:01.126Z,13.24
2023-04-19T10:33:47.896Z,13.85
2023-04-19T10:36:34.682Z,12.76
2023-04-19T10:39:40.376Z,11.88
2023-04-19T10:43:12.633Z,11.16
2023-04-19T10:46:07.461Z,10.68
2023-04-19T10:48:59.638Z,11.99
2023-04-19T10:51:55.296Z,13.42
2023-04-19T10:54:41.850Z,12.70
2023-04-19T10:57:28.725Z,11.97
2023-04-19T11:00:26.427Z,11.49
2023-04-19T11:03:44.843Z,11.16
2023-04-19T11:06:36.102Z,12.53
2023-04-19T11:09:41.792Z,13.29
2023-04-19T11:12:28.196Z,12.45
2023-04-19T11:15:14.694Z,11.66
2023-04-19T11:18:11.375Z,11.08
2023-04-19T11:20:58.428Z,10.58
2023-04-19T11:23:47.822Z,11.50
2023-04-19T11:26:34.566Z,13.05
2023-04-19T11:29:22.086Z,12.53
2023-04-19T11:32:08.682Z,11.57
2023-04-19T11:34:57.219Z,10.75
2023-04-19T11:37:43.719Z,10.50
2023-04-19T11:40:30.262Z,12.10
2023-04-19T11:43:17.101Z,12.97
2023-04-19T11:46:10.806Z,11.99
2023-04-19T11:48:57.090Z,11.04
2023-04-19T11:51:43.563Z,10.37
2023-04-19T11:54:30.027Z,10.51
2023-04-19T11:57:28.670Z,12.20
2023-04-19T12:00:16.151Z,12.29
2023-04-19T12:03:03.946Z,11.29
2023-04-19T12:06:14.276Z,10.56
2023-04-19T12:09:00.717Z,10.88
2023-04-19T12:11:50.459Z,12.30
2023-04-19T12:14:36.975Z,11.79
2023-04-19T12:17:23.746Z,10.92
2023-04-19T12:20:10.981Z,10.95
2023-04-19T12:22:57.425Z,12.64
2023-04-19T12:25:46.567Z,13.14
2023-04-19T12:28:33.130Z,12.12
2023-04-19T12:31:20.907Z,11.29
2023-04-19T12:34:07.296Z,10.67
2023-04-19T12:36:53.864Z,11.10
2023-04-19T12:39:40.251Z,13.02
2023-04-19T12:42:26.797Z,13.58
2023-04-19T12:45:13.900Z,12.52
2023-04-19T12:48:00.170Z,11.54
2023-04-19T12:50:46.738Z,11.11
2023-04-19T12:53:33.216Z,12.54
2023-04-19T12:56:19.695Z,13.61
2023-04-19T12:59:06.494Z,12.84
2023-04-19T13:01:53.159Z,12.13
2023-04-19T13:04:39.648Z,11.50
2023-04-19T13:07:26.329Z,11.52
2023-04-19T13:10:13.146Z,12.92
2023-04-19T13:13:00.746Z,12.66
2023-04-19T13:15:47.189Z,11.63
2023-04-19T13:18:33.608Z,11.17
2023-04-19T13:21:20.348Z,12.72
2023-04-19T13:24:07.098Z,13.92
2023-04-19T13:26:53.713Z,13.19
2023-04-19T13:29:40.188Z,12.17
2023-04-19T13:32:26.610Z,11.34
2023-04-19T13:35:13.020Z,11.24
2023-04-19T13:37:59.612Z,12.95
2023-04-19T13:40:46.219Z,13.94
2023-04-19T13:43:32.863Z,12.95
2023-04-19T13:46:19.228Z,11.91
2023-04-19T13:49:06.334Z,11.18
2023-04-19T13:51:53.070Z,11.36
2023-04-19T13:54:39.259Z,13.26
2023-04-19T13:57:25.637Z,14.66
2023-04-19T14:00:13.373Z,14.38
2023-04-19T14:03:00.214Z,13.27
2023-04-19T14:05:47.215Z,12.48
2023-04-19T14:08:33.812Z,12.00
2023-04-19T14:11:21.261Z,12.74
2023-04-19T14:14:07.894Z,14.45
2023-04-19T14:16:54.229Z,15.01
2023-04-19T14:19:40.907Z,13.88
2023-04-19T14:22:27.461Z,12.89
2023-04-19T14:25:18.018Z,12.29
2023-04-19T14:28:04.703Z,11.87
2023-04-19T14:30:51.724Z,12.06
2023-04-19T14:33:38.406Z,13.75
2023-04-19T14:36:25.007Z,14.48
2023-04-19T14:39:11.614Z,13.38
2023-04-19T14:41:57.927Z,12.39
2023-04-19T14:44:46.113Z,11.62
2023-04-19T14:47:32.881Z,12.07
2023-04-19T14:50:19.378Z,13.79
2023-04-19T14:53:05.924Z,14.52
2023-04-19T14:55:52.118Z,13.54
2023-04-19T14:58:38.822Z,12.58
2023-04-19T15:01:26.019Z,11.92
2023-04-19T15:04:13.056Z,11.41
2023-04-19T15:06:59.759Z,11.73
2023-04-19T15:09:46.546Z,13.51
2023-04-19T15:12:33.816Z,14.25
2023-04-19T15:15:20.067Z,13.31
2023-04-19T15:18:06.391Z,12.35
2023-04-19T15:20:52.726Z,11.68
2023-04-19T15:23:39.205Z,11.80
2023-04-19T15:26:25.960Z,13.48
2023-04-19T15:29:12.900Z,14.08
2023-04-19T15:31:59.594Z,13.17
2023-04-19T15:34:45.984Z,12.39
2023-04-19T15:37:32.682Z,11.85
2023-04-19T15:40:19.256Z,11.58
2023-04-19T15:43:06.302Z,13.00
2023-04-19T15:45:53.217Z,14.74
2023-04-19T15:48:40.378Z,14.80
2023-04-19T15:51:27.691Z,13.82
2023-04-19T15:54:14.890Z,13.02
2023-04-19T15:57:01.901Z,12.42
2023-04-19T15:59:48.615Z,12.04
2023-04-19T16:02:35.734Z,13.19
2023-04-19T16:05:22.494Z,14.12
2023-04-19T16:08:10.433Z,13.24
2023-04-19T16:10:57.198Z,12.31
2023-04-19T16:13:44.127Z,11.67
2023-04-19T16:16:33.255Z,12.01
2023-04-19T16:19:20.978Z,13.68
2023-04-19T16:22:09.066Z,13.69
2023-04-19T16:24:55.468Z,12.74
2023-04-19T16:27:44.265Z,12.00
2023-04-19T16:30:31.091Z,12.02
2023-04-19T16:33:17.675Z,13.68
2023-04-19T16:36:04.807Z,14.55
2023-04-19T16:38:51.420Z,13.67
2023-04-19T16:41:38.292Z,12.77
2023-04-19T16:44:24.515Z,12.14
2023-04-19T16:47:11.099Z,11.69
2023-04-19T16:49:59.172Z,11.96
2023-04-19T16:52:46.337Z,13.76
2023-04-19T16:55:33.199Z,14.58
2023-04-19T16:58:19.728Z,13.61
2023-04-19T17:01:06.473Z,12.57
2023-04-19T17:03:53.220Z,11.85
2023-04-19T17:06:39.745Z,11.66
2023-04-19T17:09:26.114Z,13.19
2023-04-19T17:12:12.722Z,14.43
2023-04-19T17:14:59.395Z,13.82
2023-04-19T17:17:46.150Z,12.75
2023-04-19T17:20:32.713Z,12.01
2023-04-19T17:23:19.418Z,11.43
2023-04-19T17:26:06.110Z,12.14
2023-04-19T17:28:52.468Z,13.90
2023-04-19T17:31:39.255Z,14.46
2023-04-19T17:34:25.732Z,13.30
2023-04-19T17:37:12.759Z,12.22
2023-04-19T17:40:00.605Z,11.49
2023-04-19T17:42:47.008Z,11.34
2023-04-19T17:45:34.474Z,12.93
2023-04-19T17:48:20.968Z,14.27
2023-04-19T17:51:07.737Z,14.03
2023-04-19T17:53:54.290Z,12.87
2023-04-19T17:56:41.334Z,11.99
2023-04-19T17:59:28.316Z,11.36
2023-04-19T18:02:15.041Z,10.87
2023-04-19T18:05:01.794Z,11.24
2023-04-19T18:07:48.542Z,13.15
2023-04-19T18:10:35.929Z,14.30
2023-04-19T18:13:22.349Z,13.67
2023-04-19T18:16:09.966Z,12.51
2023-04-19T18:18:56.817Z,11.66
2023-04-19T18:21:43.250Z,11.09
2023-04-19T18:24:29.949Z,11.20
2023-04-19T18:27:17.194Z,13.01
2023-04-19T18:30:05.108Z,14.43
2023-04-19T18:32:51.640Z,14.19
2023-04-19T18:35:38.347Z,13.01
2023-04-19T18:38:24.926Z,12.11
2023-04-19T18:41:11.205Z,11.47
2023-04-19T18:46:46.717Z,13.40
2023-04-19T18:49:33.499Z,14.69
2023-04-19T18:52:20.066Z,14.27
2023-04-19T18:55:07.937Z,13.07
2023-04-19T18:57:54.394Z,12.20
2023-04-19T19:00:40.819Z,11.59
2023-04-19T19:06:17.246Z,11.23
2023-04-19T19:09:04.007Z,13.08
2023-04-19T19:11:56.758Z,14.47
2023-04-19T19:14:43.740Z,14.59
2023-04-19T19:17:30.188Z,13.33
2023-04-19T19:20:16.992Z,12.32
2023-04-19T19:23:03.910Z,11.62
2023-04-19T19:25:50.669Z,11.67
2023-04-19T19:28:37.437Z,13.48
2023-04-19T19:31:24.044Z,14.84
2023-04-19T19:34:24.161Z,15.09
2023-04-19T19:37:12.410Z,13.79
2023-04-19T19:40:04.031Z,12.69
2023-04-19T19:42:51.864Z,11.90
2023-04-19T19:45:40.470Z,11.32
2023-04-19T19:48:29.918Z,11.45
2023-04-19T19:51:47.546Z,13.28
2023-04-19T19:54:23.372Z,14.63
2023-04-19T19:58:08.034Z,13.99
2023-04-19T20:00:39.811Z,12.70
2023-04-19T20:03:36.241Z,11.77
2023-04-19T20:09:13.978Z,14.34
2023-04-19T20:12:02.641Z,14.75
2023-04-19T20:14:49.188Z,13.57
2023-04-19T20:17:35.506Z,12.54
2023-04-19T20:20:22.065Z,11.79
2023-04-19T20:23:08.568Z,11.74
2023-04-19T20:25:55.260Z,13.49
2023-04-19T20:28:41.768Z,14.79
2023-04-19T20:31:29.636Z,14.83
2023-04-19T20:34:15.906Z,13.60
2023-04-19T20:37:04.053Z,12.62
2023-04-19T20:39:50.818Z,11.92
2023-04-19T20:42:37.724Z,11.98
2023-04-19T20:45:25.674Z,13.71
2023-04-19T20:48:13.204Z,15.00
2023-04-19T20:50:59.799Z,15.18
2023-04-19T20:53:46.422Z,13.98
2023-04-19T20:56:32.951Z,12.84
2023-04-19T20:59:19.794Z,12.05
2023-04-19T21:02:06.974Z,12.09
2023-04-19T21:04:53.598Z,13.81
2023-04-19T21:07:39.850Z,15.08
2023-04-19T21:10:27.549Z,15.05
2023-04-19T21:13:14.191Z,13.81
2023-04-19T21:16:00.724Z,12.85
2023-04-19T21:18:47.461Z,12.15
2023-04-19T21:21:34.090Z,12.21
2023-04-19T21:24:20.613Z,14.00
2023-04-19T21:27:07.009Z,15.31
2023-04-19T21:29:53.669Z,15.26
2023-04-19T21:32:40.264Z,14.02
2023-04-19T21:35:26.965Z,13.01
2023-04-19T21:38:13.292Z,12.30
2023-04-19T21:41:00.410Z,12.39
2023-04-19T21:43:47.545Z,14.11
2023-04-19T21:46:35.580Z,15.30
2023-04-19T21:49:22.444Z,14.72
2023-04-19T21:52:08.960Z,13.47
2023-04-19T21:54:55.653Z,12.57
2023-04-19T21:57:41.938Z,11.94
2023-04-19T22:00:28.611Z,12.10
2023-04-19T22:03:15.330Z,13.90
2023-04-19T22:06:02.875Z,15.02
2023-04-19T22:08:49.725Z,14.50
2023-04-19T22:11:36.450Z,13.14
2023-04-19T22:14:23.305Z,12.08
2023-04-19T22:17:10.285Z,11.96
2023-04-19T22:19:59.088Z,13.62
2023-04-19T22:22:45.682Z,14.77
2023-04-19T22:25:32.033Z,14.95
2023-04-19T22:28:18.684Z,13.72
2023-04-19T22:31:05.085Z,12.65
2023-04-19T22:33:51.212Z,11.90
2023-04-19T22:36:37.716Z,12.04
2023-04-19T22:39:25.711Z,13.81
2023-04-19T22:42:12.293Z,15.09
2023-04-19T22:44:58.636Z,15.01
2023-04-19T22:47:45.572Z,13.75
2023-04-19T22:50:32.735Z,12.76
2023-04-19T22:53:19.496Z,12.06
2023-04-19T22:56:06.327Z,12.21
2023-04-19T22:58:53.206Z,13.98
2023-04-19T23:01:39.850Z,15.21
2023-04-19T23:04:27.108Z,15.33
2023-04-19T23:07:13.558Z,14.09
2023-04-19T23:10:01.115Z,12.99
2023-04-19T23:12:48.996Z,12.21
2023-04-19T23:15:35.789Z,12.28
2023-04-19T23:18:22.491Z,13.97
2023-04-19T23:21:09.365Z,15.18
2023-04-19T23:23:55.856Z,15.29
2023-04-19T23:26:41.995Z,14.08
2023-04-19T23:29:28.670Z,13.06
2023-04-19T23:32:15.443Z,12.34
2023-04-19T23:35:01.782Z,12.44
2023-04-19T23:37:48.584Z,14.25
2023-04-19T23:40:35.175Z,15.45
2023-04-19T23:43:21.841Z,14.83
2023-04-19T23:46:08.389Z,13.60
2023-04-19T23:48:55.293Z,12.71
2023-04-19T23:51:41.438Z,12.64
2023-04-19T23:54:28.003Z,14.34
2023-04-19T23:57:14.255Z,15.51
